createdAt,value
2023-01-08T00:00:29.272Z,2.26
2023-01-08T00:02:57.675Z,2.24
2023-01-08T00:05:27.572Z,2.21
2023-01-08T00:07:55.674Z,2.19
2023-01-08T00:10:24.002Z,2.16
2023-01-08T00:12:55.904Z,2.04
2023-01-08T00:15:24.537Z,1.14
2023-01-08T00:17:52.452Z,2.13
2023-01-08T00:20:21.882Z,2.12
2023-01-08T00:22:51.843Z,2.18
2023-01-08T00:25:21.987Z,2.15
2023-01-08T00:27:50.389Z,2.12
2023-01-08T00:30:18.450Z,2.11
2023-01-08T00:32:46.734Z,2.08
2023-01-08T00:35:14.929Z,2.01
2023-01-08T00:37:43.194Z,1.99
2023-01-08T00:40:11.345Z,1.97
2023-01-08T00:42:39.733Z,1.94
2023-01-08T00:45:10.551Z,2.01
2023-01-08T00:47:38.648Z,1.98
2023-01-08T00:50:07.093Z,2.05
2023-01-08T00:52:36.132Z,2.02
2023-01-08T00:55:04.930Z,2.04
2023-01-08T00:57:38.926Z,2.04
2023-01-08T01:00:12.268Z,2.03
2023-01-08T01:02:41.488Z,1.97
2023-01-08T01:05:17.615Z,1.94
2023-01-08T01:07:46.439Z,1.92
2023-01-08T01:10:17.112Z,1.60
2023-01-08T01:12:45.613Z,1.80
2023-01-08T01:15:16.997Z,1.75
2023-01-08T01:17:46.508Z,1.77
2023-01-08T01:20:17.386Z,1.75
2023-01-08T01:22:45.785Z,1.72
2023-01-08T01:25:14.161Z,1.68
2023-01-08T01:27:42.998Z,1.72
2023-01-08T01:30:11.690Z,1.72
2023-01-08T01:32:39.608Z,1.77
2023-01-08T01:35:08.728Z,1.76
2023-01-08T01:37:37.134Z,1.76
2023-01-08T01:40:05.850Z,1.77
2023-01-08T01:42:40.073Z,1.02
2023-01-08T01:45:30.566Z,1.52
2023-01-08T01:48:04.026Z,1.69
2023-01-08T01:50:49.017Z,1.42
2023-01-08T01:53:33.104Z,1.64
2023-01-08T01:56:04.048Z,1.57
2023-01-08T01:58:33.096Z,1.55
2023-01-08T02:01:07.250Z,1.51
2023-01-08T02:03:39.455Z,1.22
2023-01-08T02:06:28.749Z,1.31
2023-01-08T02:10:00.093Z,1.42
2023-01-08T02:12:59.140Z,1.51
2023-01-08T02:15:48.970Z,1.63
2023-01-08T02:18:29.655Z,1.38
2023-01-08T02:21:04.839Z,1.64
2023-01-08T02:24:27.900Z,1.66
2023-01-08T02:26:59.850Z,1.66
2023-01-08T02:29:29.390Z,1.60
2023-01-08T02:31:57.939Z,1.61
2023-01-08T02:34:26.088Z,1.59
2023-01-08T02:36:57.733Z,1.30
2023-01-08T02:40:20.871Z,1.42
2023-01-08T02:43:12.764Z,1.26
2023-01-08T02:45:49.172Z,1.35
2023-01-08T02:48:43.239Z,1.28
2023-01-08T02:51:20.530Z,1.19
2023-01-08T02:53:53.273Z,1.27
2023-01-08T02:56:47.147Z,1.26
2023-01-08T02:59:18.089Z,1.30
2023-01-08T03:01:46.725Z,1.35
2023-01-08T03:04:19.912Z,1.26
2023-01-08T03:06:48.666Z,1.33
2023-01-08T03:09:17.558Z,1.35
2023-01-08T03:12:04.922Z,1.40
2023-01-08T03:15:08.433Z,1.43
2023-01-08T03:17:46.777Z,1.17
2023-01-08T03:20:20.632Z,1.35
2023-01-08T03:22:53.311Z,1.43
2023-01-08T03:25:24.081Z,1.15
2023-01-08T03:28:00.812Z,1.38
2023-01-08T03:30:30.925Z,1.22
2023-01-08T03:33:02.164Z,1.28
2023-01-08T03:35:32.112Z,1.46
2023-01-08T03:38:42.743Z,1.16
2023-01-08T03:41:15.158Z,1.38
2023-01-08T03:43:43.121Z,1.37
2023-01-08T03:46:28.239Z,1.32
2023-01-08T03:48:57.172Z,1.37
2023-01-08T03:51:25.686Z,1.34
2023-01-08T03:53:59.644Z,1.11
2023-01-08T03:56:27.730Z,1.30
2023-01-08T03:58:55.780Z,1.38
2023-01-08T04:01:23.920Z,1.32
2023-01-08T04:03:51.954Z,1.30
2023-01-08T04:06:19.809Z,1.24
2023-01-08T04:08:49.213Z,1.30
2023-01-08T04:11:17.391Z,1.28
2023-01-08T04:13:45.616Z,1.29
2023-01-08T04:16:13.750Z,1.31
2023-01-08T04:18:42.006Z,1.30
2023-01-08T04:21:10.346Z,1.25
2023-01-08T04:23:38.373Z,1.25
2023-01-08T04:26:08.723Z,1.24
2023-01-08T04:28:37.373Z,1.18
2023-01-08T04:31:10.654Z,1.20
2023-01-08T04:33:38.625Z,1.18
2023-01-08T04:36:06.906Z,1.15
2023-01-08T04:38:35.090Z,0.90
2023-01-08T04:41:03.750Z,1.16
2023-01-08T04:43:32.818Z,1.19
2023-01-08T04:46:09.657Z,1.15
2023-01-08T04:48:37.640Z,1.11
2023-01-08T04:51:06.090Z,1.10
2023-01-08T04:53:38.166Z,1.12
2023-01-08T04:56:09.894Z,0.90
2023-01-08T04:58:38.772Z,1.03
2023-01-08T05:01:18.527Z,0.97
2023-01-08T05:03:46.990Z,1.06
2023-01-08T05:06:15.147Z,0.74
2023-01-08T05:08:43.058Z,1.03
2023-01-08T05:11:11.460Z,1.01
2023-01-08T05:13:40.228Z,0.99
2023-01-08T05:16:10.957Z,0.95
2023-01-08T05:18:39.122Z,0.95
2023-01-08T05:21:07.026Z,0.89
2023-01-08T05:23:35.339Z,0.91
2023-01-08T05:26:05.911Z,0.85
2023-01-08T05:28:35.045Z,0.82
2023-01-08T05:31:02.975Z,0.80
2023-01-08T05:33:31.372Z,0.77
2023-01-08T05:35:59.506Z,0.78
2023-01-08T05:38:27.453Z,0.76
2023-01-08T05:40:55.684Z,0.74
2023-01-08T05:43:23.714Z,0.69
2023-01-08T05:45:51.562Z,0.70
2023-01-08T05:48:19.549Z,0.71
2023-01-08T05:50:50.522Z,0.43
2023-01-08T05:53:18.969Z,0.69
2023-01-08T05:55:47.593Z,0.51
2023-01-08T05:58:19.324Z,0.54
2023-01-08T06:00:47.813Z,0.60
2023-01-08T06:03:15.948Z,0.49
2023-01-08T06:05:44.031Z,0.28
2023-01-08T06:08:11.947Z,0.38
2023-01-08T06:10:42.734Z,0.10
2023-01-08T06:13:11.208Z,0.25
2023-01-08T06:15:40.247Z,0.29
2023-01-08T06:18:08.899Z,0.19
2023-01-08T06:20:36.887Z,0.18
2023-01-08T06:23:04.773Z,0.17
2023-01-08T06:25:32.889Z,0.15
2023-01-08T06:28:00.989Z,0.12
2023-01-08T06:30:29.331Z,0.09
2023-01-08T06:32:59.415Z,0.00
2023-01-08T06:35:28.068Z,-0.19
2023-01-08T06:37:56.627Z,0.04
2023-01-08T06:40:25.504Z,0.03
2023-01-08T06:42:53.851Z,0.02
2023-01-08T06:45:21.996Z,0.10
2023-01-08T06:47:50.616Z,0.07
2023-01-08T06:50:18.938Z,0.12
2023-01-08T06:52:56.432Z,0.19
2023-01-08T06:55:25.577Z,-0.06
2023-01-08T06:57:58.428Z,0.32
2023-01-08T07:00:27.470Z,0.15
2023-01-08T07:02:55.839Z,0.39
2023-01-08T07:05:24.701Z,0.38
2023-01-08T07:07:52.816Z,0.42
2023-01-08T07:10:21.020Z,0.34
2023-01-08T07:12:50.788Z,0.34
2023-01-08T07:15:18.800Z,0.45
2023-01-08T07:17:46.830Z,0.61
2023-01-08T07:20:15.090Z,0.46
2023-01-08T07:22:43.028Z,0.36
2023-01-08T07:25:11.204Z,0.46
2023-01-08T07:27:39.761Z,0.59
2023-01-08T07:30:17.995Z,0.24
2023-01-08T07:32:53.133Z,0.56
2023-01-08T07:35:20.999Z,0.58
2023-01-08T07:37:49.346Z,0.60
2023-01-08T07:40:17.913Z,0.22
2023-01-08T07:42:45.937Z,0.58
2023-01-08T07:45:13.945Z,0.52
2023-01-08T07:47:42.347Z,0.59
2023-01-08T07:50:11.125Z,0.54
2023-01-08T07:52:39.110Z,0.58
2023-01-08T07:55:08.844Z,0.60
2023-01-08T07:57:36.776Z,0.61
2023-01-08T08:00:05.812Z,0.69
2023-01-08T08:02:35.256Z,0.68
2023-01-08T08:05:04.498Z,0.83
2023-01-08T08:07:32.716Z,0.70
2023-01-08T08:10:05.339Z,0.83
2023-01-08T08:12:35.571Z,0.90
2023-01-08T08:15:05.156Z,0.58
2023-01-08T08:17:33.300Z,0.93
2023-01-08T08:20:01.323Z,0.92
2023-01-08T08:22:29.565Z,0.76
2023-01-08T08:24:57.783Z,1.07
2023-01-08T08:27:26.044Z,1.03
2023-01-08T08:29:54.175Z,1.02
2023-01-08T08:32:22.387Z,0.82
2023-01-08T08:34:50.901Z,0.90
2023-01-08T08:37:19.077Z,0.69
2023-01-08T08:39:47.394Z,1.04
2023-01-08T08:42:15.687Z,0.99
2023-01-08T08:44:43.859Z,1.03
2023-01-08T08:47:12.636Z,1.03
2023-01-08T08:49:42.266Z,0.89
2023-01-08T08:52:11.648Z,1.17
2023-01-08T08:54:41.796Z,1.08
2023-01-08T08:57:10.792Z,1.06
2023-01-08T08:59:39.025Z,1.10
2023-01-08T09:02:07.778Z,1.02
2023-01-08T09:04:36.617Z,1.14
2023-01-08T09:07:04.995Z,0.83
2023-01-08T09:09:33.383Z,1.12
2023-01-08T09:12:02.388Z,1.13
2023-01-08T09:14:30.642Z,1.20
2023-01-08T09:16:59.298Z,1.24
2023-01-08T09:19:28.411Z,1.16
2023-01-08T09:21:57.036Z,1.20
2023-01-08T09:24:25.899Z,1.17
2023-01-08T09:26:55.060Z,0.99
2023-01-08T09:29:23.462Z,1.19
2023-01-08T09:31:52.250Z,0.98
2023-01-08T09:34:20.588Z,1.01
2023-01-08T09:36:49.562Z,1.12
2023-01-08T09:39:18.284Z,1.32
2023-01-08T09:41:48.477Z,1.40
2023-01-08T09:44:23.078Z,1.31
2023-01-08T09:46:51.595Z,1.28
2023-01-08T09:49:30.470Z,1.29
2023-01-08T09:52:01.069Z,1.41
2023-01-08T09:54:32.631Z,1.41
2023-01-08T09:57:01.489Z,1.14
2023-01-08T09:59:30.389Z,1.33
2023-01-08T10:02:00.000Z,1.47
2023-01-08T10:04:33.678Z,1.14
2023-01-08T10:07:23.131Z,1.51
2023-01-08T10:09:53.409Z,1.56
2023-01-08T10:12:36.146Z,1.28
2023-01-08T10:15:09.072Z,1.70
2023-01-08T10:17:39.597Z,1.46
2023-01-08T10:20:24.217Z,1.05
2023-01-08T10:22:57.321Z,1.62
2023-01-08T10:25:28.906Z,1.30
2023-01-08T10:28:04.485Z,1.39
2023-01-08T10:30:37.920Z,1.39
2023-01-08T10:33:31.263Z,1.37
2023-01-08T10:36:04.041Z,1.37
2023-01-08T10:38:40.996Z,1.82
2023-01-08T10:41:14.512Z,1.49
2023-01-08T10:44:04.774Z,1.84
2023-01-08T10:46:42.202Z,1.82
2023-01-08T10:49:42.399Z,1.60
2023-01-08T10:52:54.397Z,1.39
2023-01-08T10:55:39.961Z,1.67
2023-01-08T10:58:11.322Z,1.77
2023-01-08T11:00:39.950Z,1.67
2023-01-08T11:03:34.300Z,1.72
2023-01-08T11:06:19.796Z,1.76
2023-01-08T11:08:58.894Z,1.82
2023-01-08T11:11:36.494Z,1.79
2023-01-08T11:14:16.559Z,1.80
2023-01-08T11:16:45.010Z,1.90
2023-01-08T11:19:45.842Z,1.91
2023-01-08T11:22:25.340Z,1.65
2023-01-08T11:24:54.639Z,1.89
2023-01-08T11:27:37.151Z,1.12
2023-01-08T11:30:21.536Z,1.64
2023-01-08T11:33:10.055Z,1.96
2023-01-08T11:36:32.912Z,1.92
2023-01-08T11:39:02.750Z,1.93
2023-01-08T11:41:43.237Z,2.08
2023-01-08T11:44:40.642Z,1.93
2023-01-08T11:47:57.622Z,2.10
2023-01-08T11:50:39.049Z,1.06
2023-01-08T11:53:40.515Z,1.82
2023-01-08T11:56:45.234Z,2.07
2023-01-08T11:59:24.293Z,1.82
2023-01-08T12:02:30.964Z,1.85
2023-01-08T12:05:31.503Z,2.10
2023-01-08T12:08:40.598Z,2.16
2023-01-08T12:11:23.215Z,2.15
2023-01-08T12:14:22.514Z,1.88
2023-01-08T12:17:04.472Z,2.07
2023-01-08T12:19:57.104Z,2.14
2023-01-08T12:23:08.828Z,2.17
2023-01-08T12:25:58.821Z,2.11
2023-01-08T12:28:44.749Z,1.93
2023-01-08T12:32:01.893Z,2.08
2023-01-08T12:34:40.743Z,2.14
2023-01-08T12:37:23.796Z,2.06
2023-01-08T12:40:23.456Z,2.04
2023-01-08T12:43:00.552Z,2.05
2023-01-08T12:45:39.847Z,1.97
2023-01-08T12:48:31.337Z,1.91
2023-01-08T12:51:19.130Z,2.03
2023-01-08T12:53:51.839Z,2.07
2023-01-08T12:56:44.557Z,2.10
2023-01-08T12:59:40.507Z,1.86
2023-01-08T13:03:00.169Z,2.09
2023-01-08T13:05:32.787Z,1.97
2023-01-08T13:08:35.891Z,2.02
2023-01-08T13:11:05.257Z,2.05
2023-01-08T13:13:44.478Z,1.87
2023-01-08T13:16:20.819Z,1.84
2023-01-08T13:18:58.638Z,2.09
2023-01-08T13:21:44.344Z,1.99
2023-01-08T13:24:37.885Z,2.06
2023-01-08T13:27:30.162Z,2.04
2023-01-08T13:29:59.836Z,2.02
2023-01-08T13:32:49.251Z,1.77
2023-01-08T13:35:27.910Z,1.99
2023-01-08T13:38:10.169Z,1.96
2023-01-08T13:40:45.131Z,2.02
2023-01-08T13:43:28.904Z,2.00
2023-01-08T13:46:04.415Z,1.75
2023-01-08T13:49:10.073Z,2.12
2023-01-08T13:51:49.617Z,2.05
2023-01-08T13:54:42.554Z,2.04
2023-01-08T13:57:21.190Z,1.72
2023-01-08T13:59:58.202Z,1.82
2023-01-08T14:02:30.728Z,1.99
2023-01-08T14:05:03.995Z,1.81
2023-01-08T14:07:39.058Z,1.84
2023-01-08T14:10:13.924Z,1.70
2023-01-08T14:12:44.556Z,1.84
2023-01-08T14:15:30.315Z,1.97
2023-01-08T14:18:02.131Z,2.02
2023-01-08T14:20:41.563Z,1.99
2023-01-08T14:23:20.496Z,2.05
2023-01-08T14:25:50.424Z,2.04
2023-01-08T14:28:23.672Z,2.01
2023-01-08T14:30:56.628Z,2.01
2023-01-08T14:33:34.933Z,2.01
2023-01-08T14:36:07.959Z,2.04
2023-01-08T14:38:37.033Z,1.72
2023-01-08T14:41:14.071Z,1.99
2023-01-08T14:43:47.703Z,1.88
2023-01-08T14:46:26.577Z,2.08
2023-01-08T14:48:56.938Z,2.04
2023-01-08T14:51:29.721Z,2.08
2023-01-08T14:54:06.320Z,1.98
2023-01-08T14:56:36.675Z,1.77
2023-01-08T14:59:12.488Z,2.01
2023-01-08T15:01:41.350Z,2.09
2023-01-08T15:04:22.861Z,2.05
2023-01-08T15:06:54.134Z,1.98
2023-01-08T15:09:32.260Z,2.15
2023-01-08T15:12:03.067Z,1.84
2023-01-08T15:14:33.964Z,2.14
2023-01-08T15:17:17.141Z,2.10
2023-01-08T15:19:59.886Z,2.12
2023-01-08T15:22:33.036Z,1.87
2023-01-08T15:25:06.981Z,2.17
2023-01-08T15:27:37.802Z,2.17
2023-01-08T15:30:28.067Z,2.19
2023-01-08T15:33:27.731Z,2.24
2023-01-08T15:35:57.122Z,2.17
2023-01-08T15:38:25.822Z,2.03
2023-01-08T15:40:55.463Z,2.33
2023-01-08T15:43:24.386Z,2.35
2023-01-08T15:45:53.534Z,2.30
2023-01-08T15:48:22.041Z,2.27
2023-01-08T15:50:52.407Z,2.30
2023-01-08T15:53:24.814Z,2.33
2023-01-08T15:55:53.499Z,2.01
2023-01-08T15:58:21.908Z,2.08
2023-01-08T16:00:50.632Z,2.03
2023-01-08T16:03:19.268Z,2.19
2023-01-08T16:05:48.132Z,2.35
2023-01-08T16:08:18.666Z,2.34
2023-01-08T16:10:52.072Z,2.44
2023-01-08T16:13:20.787Z,2.45
2023-01-08T16:15:49.106Z,2.33
2023-01-08T16:18:18.228Z,2.45
2023-01-08T16:20:47.098Z,2.18
2023-01-08T16:23:15.688Z,2.20
2023-01-08T16:25:44.737Z,2.44
2023-01-08T16:28:13.392Z,2.33
2023-01-08T16:30:44.568Z,2.48
2023-01-08T16:33:13.741Z,2.28
2023-01-08T16:35:43.021Z,2.50
2023-01-08T16:38:14.682Z,2.52
2023-01-08T16:40:43.441Z,2.53
2023-01-08T16:43:12.561Z,2.44
2023-01-08T16:45:47.382Z,2.54
2023-01-08T16:48:16.880Z,2.47
2023-01-08T16:50:46.345Z,2.53
2023-01-08T16:53:17.800Z,2.30
2023-01-08T16:55:47.635Z,2.28
2023-01-08T16:58:17.918Z,2.53
2023-01-08T17:00:48.803Z,2.59
2023-01-08T17:03:17.620Z,2.57
2023-01-08T17:05:46.843Z,2.31
2023-01-08T17:08:17.311Z,2.56
2023-01-08T17:10:46.503Z,2.54
2023-01-08T17:13:16.366Z,2.29
2023-01-08T17:15:45.388Z,2.61
2023-01-08T17:18:14.353Z,2.42
2023-01-08T17:20:43.089Z,2.42
2023-01-08T17:23:14.515Z,2.61
2023-01-08T17:25:43.617Z,2.59
2023-01-08T17:28:12.085Z,2.50
2023-01-08T17:30:40.844Z,2.59
2023-01-08T17:33:09.989Z,2.51
2023-01-08T17:35:42.757Z,2.27
2023-01-08T17:38:12.431Z,2.56
2023-01-08T17:40:40.907Z,2.55
2023-01-08T17:43:12.877Z,2.52
2023-01-08T17:45:42.072Z,2.52
2023-01-08T17:48:14.155Z,2.52
2023-01-08T17:50:42.867Z,2.47
2023-01-08T17:53:11.807Z,2.42
2023-01-08T17:55:42.028Z,2.41
2023-01-08T17:58:11.197Z,2.39
2023-01-08T18:00:40.113Z,2.38
2023-01-08T18:03:09.402Z,2.14
2023-01-08T18:05:37.980Z,2.27
2023-01-08T18:08:06.693Z,2.28
2023-01-08T18:10:35.235Z,2.21
2023-01-08T18:13:04.012Z,2.19
2023-01-08T18:15:34.855Z,1.38
2023-01-08T18:18:04.486Z,2.17
2023-01-08T18:20:33.831Z,1.37
2023-01-08T18:23:02.933Z,1.78
2023-01-08T18:25:32.022Z,1.91
2023-01-08T18:28:01.017Z,2.02
2023-01-08T18:30:31.162Z,1.93
2023-01-08T18:32:59.710Z,2.06
2023-01-08T18:35:28.928Z,2.01
2023-01-08T18:37:59.919Z,1.73
2023-01-08T18:40:28.789Z,1.92
2023-01-08T18:43:00.078Z,1.90
2023-01-08T18:45:29.657Z,1.92
2023-01-08T18:48:01.141Z,1.01
2023-01-08T18:50:29.769Z,1.90
2023-01-08T18:52:58.165Z,1.89
2023-01-08T18:55:26.871Z,1.64
2023-01-08T18:57:55.926Z,1.87
2023-01-08T19:00:26.536Z,1.69
2023-01-08T19:02:56.063Z,1.99
2023-01-08T19:05:24.699Z,1.97
2023-01-08T19:07:53.691Z,1.88
2023-01-08T19:10:22.775Z,1.66
2023-01-08T19:12:53.346Z,1.02
2023-01-08T19:15:22.697Z,1.90
2023-01-08T19:17:53.043Z,1.10
2023-01-08T19:20:21.993Z,1.58
2023-01-08T19:22:51.985Z,1.82
2023-01-08T19:25:20.694Z,1.76
2023-01-08T19:27:49.358Z,1.82
2023-01-08T19:30:18.225Z,1.75
2023-01-08T19:32:49.328Z,1.74
2023-01-08T19:35:18.285Z,1.77
2023-01-08T19:37:47.148Z,1.46
2023-01-08T19:40:15.968Z,1.62
2023-01-08T19:43:03.086Z,1.79
2023-01-08T19:45:31.741Z,1.66
2023-01-08T19:48:00.663Z,1.69
2023-01-08T19:50:30.905Z,1.74
2023-01-08T19:53:00.511Z,1.62
2023-01-08T19:55:28.788Z,1.86
2023-01-08T19:57:57.686Z,1.54
2023-01-08T20:00:26.439Z,1.60
2023-01-08T20:02:54.795Z,1.78
2023-01-08T20:05:23.341Z,1.83
2023-01-08T20:07:53.232Z,1.81
2023-01-08T20:10:21.970Z,1.84
2023-01-08T20:12:51.281Z,1.76
2023-01-08T20:15:22.364Z,1.63
2023-01-08T20:17:50.905Z,1.90
2023-01-08T20:20:20.049Z,1.96
2023-01-08T20:22:49.724Z,2.08
2023-01-08T20:25:18.331Z,2.14
2023-01-08T20:27:47.518Z,2.14
2023-01-08T20:30:16.056Z,2.30
2023-01-08T20:32:44.419Z,2.27
2023-01-08T20:35:13.054Z,2.40
2023-01-08T20:37:41.555Z,2.41
2023-01-08T20:40:13.670Z,2.15
2023-01-08T20:42:46.168Z,2.48
2023-01-08T20:49:47.196Z,2.19
2023-01-08T20:52:16.736Z,2.40
2023-01-08T20:54:45.013Z,2.50
2023-01-08T20:57:13.619Z,2.07
2023-01-08T20:59:43.568Z,2.55
2023-01-08T21:02:12.788Z,2.59
2023-01-08T21:04:42.037Z,2.61
2023-01-08T21:07:10.653Z,2.53
2023-01-08T21:09:40.310Z,2.63
2023-01-08T21:12:09.066Z,2.55
2023-01-08T21:14:38.553Z,1.81
2023-01-08T21:17:06.894Z,2.32
2023-01-08T21:19:35.572Z,2.59
2023-01-08T21:22:03.652Z,2.63
2023-01-08T21:24:33.825Z,2.63
2023-01-08T21:27:02.596Z,2.59
2023-01-08T21:29:31.304Z,2.69
2023-01-08T21:32:00.252Z,2.68
2023-01-08T21:34:29.478Z,2.71
2023-01-08T21:36:58.181Z,2.75
2023-01-08T21:39:26.459Z,2.76
2023-01-08T21:42:14.029Z,2.79
2023-01-08T21:45:01.078Z,2.75
2023-01-08T21:47:29.773Z,2.76
2023-01-08T21:49:58.718Z,2.83
2023-01-08T21:52:46.217Z,2.87
2023-01-08T21:55:18.068Z,2.85
2023-01-08T21:57:47.022Z,2.84
2023-01-08T22:00:16.687Z,2.85
2023-01-08T22:02:45.089Z,2.88
2023-01-08T22:05:13.871Z,2.85
2023-01-08T22:07:42.437Z,2.59
2023-01-08T22:10:12.726Z,2.84
2023-01-08T22:12:42.969Z,2.82
2023-01-08T22:15:12.037Z,2.62
2023-01-08T22:17:40.879Z,2.83
2023-01-08T22:20:11.579Z,2.87
2023-01-08T22:22:41.408Z,2.51
2023-01-08T22:25:11.610Z,2.92
2023-01-08T22:27:40.793Z,2.90
2023-01-08T22:30:13.093Z,2.86
2023-01-08T22:32:41.748Z,2.91
2023-01-08T22:35:10.543Z,2.97
2023-01-08T22:37:40.711Z,2.91
2023-01-08T22:40:11.206Z,2.98
2023-01-08T22:42:39.602Z,2.75
2023-01-08T22:45:08.863Z,3.04
2023-01-08T22:47:37.925Z,3.05
2023-01-08T22:50:06.768Z,3.07
2023-01-08T22:52:35.930Z,3.08
2023-01-08T22:55:05.679Z,2.84
2023-01-08T22:57:34.650Z,3.11
2023-01-08T23:00:06.018Z,3.14
2023-01-08T23:02:36.004Z,3.16
2023-01-08T23:05:05.734Z,3.18
2023-01-08T23:07:34.187Z,3.12
2023-01-08T23:10:02.995Z,3.15
2023-01-08T23:12:34.556Z,3.22
2023-01-08T23:15:04.804Z,3.21
2023-01-08T23:17:38.966Z,3.20
2023-01-08T23:20:14.831Z,3.21
2023-01-08T23:22:43.586Z,3.22
2023-01-08T23:25:12.705Z,2.99
2023-01-08T23:27:41.628Z,3.21
2023-01-08T23:30:13.316Z,3.14
2023-01-08T23:32:41.905Z,3.22
2023-01-08T23:35:10.357Z,3.18
2023-01-08T23:37:39.405Z,3.27
2023-01-08T23:40:09.697Z,2.98
2023-01-08T23:42:37.989Z,3.00
2023-01-08T23:45:08.898Z,3.26
2023-01-08T23:47:39.424Z,3.16
2023-01-08T23:50:09.221Z,2.52
2023-01-08T23:52:37.644Z,3.28
2023-01-08T23:55:06.846Z,3.32
2023-01-08T23:57:35.180Z,3.30
